Terminal Aerodrome Forecast
Issued by NWS Cleveland, OH

Home | Current Version | Previous Version | Text Only | Print | Product List | Glossary Off
Versions: 1 2 3 4 5 6 7 8 9 10 11 12 13 14 15 16

000
FTUS41 KCLE 020300 AAA
TAFCAK
TAF AMD
KCAK 020300Z 0203/0224 25012G18KT P6SM SCT025 OVC040
     FM020600 24014KT P6SM OVC025
     FM021900 27014G22KT P6SM SCT025 OVC035=

USA.gov is the U.S. government's official web portal to all federal, state and local government web resources and services.